Time;durP1;ratioP1;P1;durP2;ratioP2;P2;SDS_P1;SDS_P2;PMS_P1;PMS_P2;Temp;Humidity;BMP_temperature;BMP_pressure;BME280_temperature;BME280_humidity;BME280_pressure;Samples;Min_cycle;Max_cycle;Signal;HPM_P1;HPM_P2
2022/08/13 00:01:15;;;;;;;1.52;1.42;;;;;;;16.80;55.29;98296.91;4931124;29;20074;-72
2022/08/13 00:03:43;;;;;;;2.08;1.35;;;;;;;16.74;55.44;98291.50;4924503;29;20058;-72
2022/08/13 00:09:14;;;;;;;3.50;1.30;;;;;;;16.59;54.47;98305.81;4916340;29;20050;-72
2022/08/13 00:14:41;;;;;;;1.63;1.52;;;;;;;16.56;54.62;98303.53;4924649;29;20040;-72
2022/08/13 00:17:14;;;;;;;1.48;1.30;;;;;;;16.56;54.73;98300.88;4929378;29;20059;-72
2022/08/13 00:19:46;;;;;;;2.03;1.40;;;;;;;16.55;55.30;98307.22;4924214;29;20048;-72
2022/08/13 00:22:25;;;;;;;1.83;1.70;;;;;;;16.55;54.67;98298.38;4925290;29;20035;-72
2022/08/13 00:24:58;;;;;;;1.80;1.67;;;;;;;16.46;54.74;98295.84;4915345;29;20071;-72
2022/08/13 00:27:26;;;;;;;1.70;1.45;;;;;;;16.41;55.17;98289.47;4915615;29;20056;-72
2022/08/13 00:30:07;;;;;;;3.75;1.60;;;;;;;16.37;56.13;98289.00;4919327;29;20059;-72
2022/08/13 00:32:37;;;;;;;3.53;1.33;;;;;;;16.31;56.35;98288.97;4926916;29;20143;-72
2022/08/13 00:35:04;;;;;;;1.52;1.38;;;;;;;16.24;56.55;98286.25;4918430;29;20546;-72
2022/08/13 00:37:43;;;;;;;1.98;1.63;;;;;;;16.30;56.68;98284.63;4926750;29;20059;-72
2022/08/13 00:40:19;;;;;;;3.20;1.60;;;;;;;16.34;56.11;98276.06;4917791;29;20044;-72
2022/08/13 00:43:03;;;;;;;2.97;1.98;;;;;;;16.38;56.19;98271.97;4915197;29;20123;-72
2022/08/13 00:45:32;;;;;;;2.33;1.45;;;;;;;16.40;55.99;98275.28;4921805;29;20094;-72
2022/08/13 00:50:44;;;;;;;2.22;1.67;;;;;;;16.52;55.52;98261.38;4922400;29;20099;-72
2022/08/13 00:53:17;;;;;;;1.48;1.30;;;;;;;16.52;54.88;98262.19;4924143;29;20099;-72
2022/08/13 00:55:52;;;;;;;2.05;1.90;;;;;;;16.63;55.60;98258.97;4916577;29;20059;-72
2022/08/13 00:58:20;;;;;;;1.50;1.40;;;;;;;16.68;55.52;98266.41;4915498;29;20060;-72
2022/08/13 01:00:53;;;;;;;2.80;1.50;;;;;;;16.67;54.58;98264.75;4924018;29;20056;-72
2022/08/13 01:03:20;;;;;;;3.25;1.45;;;;;;;16.56;54.96;98262.63;4918140;29;20467;-72
2022/08/13 01:06:08;;;;;;;2.92;1.75;;;;;;;16.48;54.48;98257.44;4930354;29;20974;-72
2022/08/13 01:08:40;;;;;;;2.22;1.48;;;;;;;16.47;55.92;98259.28;4922643;29;20503;-72
2022/08/13 01:11:20;;;;;;;1.75;1.33;;;;;;;16.38;55.83;98257.81;4922780;29;20071;-72
2022/08/13 01:13:48;;;;;;;3.25;1.60;;;;;;;16.28;55.59;98262.69;4916251;29;20499;-72
2022/08/13 01:16:18;;;;;;;2.08;1.50;;;;;;;16.18;56.83;98260.34;4918731;29;20056;-72
2022/08/13 01:18:51;;;;;;;1.65;1.55;;;;;;;16.12;56.94;98256.59;4917828;29;20056;-72
2022/08/13 01:21:22;;;;;;;2.47;1.45;;;;;;;16.01;56.76;98252.63;4930026;29;20161;-72
2022/08/13 01:23:56;;;;;;;1.50;1.40;;;;;;;15.98;57.65;98260.16;4918525;29;20039;-72
2022/08/13 01:26:32;;;;;;;5.45;1.85;;;;;;;15.90;57.61;98269.13;4921845;29;20062;-72
2022/08/13 01:29:07;;;;;;;3.53;1.60;;;;;;;15.87;57.18;98266.03;4925138;29;20056;-72
2022/08/13 01:31:40;;;;;;;2.72;1.90;;;;;;;15.85;57.58;98265.41;4915220;29;20079;-72
2022/08/13 01:34:07;;;;;;;2.97;1.75;;;;;;;15.78;57.80;98260.03;4921435;29;20051;-72
2022/08/13 01:36:53;;;;;;;2.97;1.92;;;;;;;15.63;57.64;98259.22;4922270;29;20062;-72
2022/08/13 01:39:23;;;;;;;;;;;;;;;15.48;58.88;98254.78;4915379;29;20079;-72
2022/08/13 01:41:55;;;;;;;2.17;1.83;;;;;;;15.49;58.69;98258.28;4927704;29;19927;-72
2022/08/13 01:44:25;;;;;;;2.25;1.73;;;;;;;15.55;59.29;98255.66;4921956;29;20339;-72
2022/08/13 01:52:51;;;;;;;2.17;1.80;;;;;;;15.58;59.15;98263.28;4925022;29;20036;-72
2022/08/13 01:55:19;;;;;;;1.90;1.70;;;;;;;15.53;58.79;98260.38;4919766;29;20048;-72
2022/08/13 01:58:24;;;;;;;2.50;2.05;;;;;;;15.41;60.28;98263.75;4923602;29;20071;-72
2022/08/13 02:00:57;;;;;;;3.17;1.80;;;;;;;15.33;59.22;98257.50;4914650;29;20580;-72
2022/08/13 02:03:25;;;;;;;3.50;1.90;;;;;;;15.43;60.89;98254.53;4922156;29;20226;-72
2022/08/13 02:05:56;;;;;;;2.03;1.83;;;;;;;15.33;59.69;98257.50;4901398;29;20056;-72
2022/08/13 02:08:42;;;;;;;2.17;1.98;;;;;;;15.10;61.31;98251.50;4917792;29;20044;-72
2022/08/13 02:11:14;;;;;;;2.60;1.65;;;;;;;14.92;61.53;98249.25;4938928;28;20102;-72
2022/08/13 02:13:41;;;;;;;2.63;2.03;;;;;;;14.72;61.75;98251.66;4922776;29;20131;-72
2022/08/13 02:16:08;;;;;;;2.00;1.90;;;;;;;14.69;63.00;98244.03;4919722;29;20123;-72
2022/08/13 02:18:35;;;;;;;2.80;2.35;;;;;;;14.80;61.95;98245.41;4925061;29;20499;-72
2022/08/13 02:21:04;;;;;;;2.47;2.28;;;;;;;14.69;61.86;98257.34;4916991;29;20067;-72
2022/08/13 02:23:53;;;;;;;3.40;2.08;;;;;;;14.78;63.36;98261.56;4913571;29;20048;-72
2022/08/13 02:26:28;;;;;;;4.00;2.30;;;;;;;14.65;62.62;98266.72;4917195;29;20050;-71
2022/08/13 02:28:57;;;;;;;3.08;2.28;;;;;;;14.39;64.12;98261.81;4915746;29;20055;-72
2022/08/13 02:31:26;;;;;;;4.60;2.38;;;;;;;14.17;64.10;98261.72;4928326;29;20043;-72
2022/08/13 02:34:12;;;;;;;2.92;2.35;;;;;;;14.13;64.41;98262.25;4932277;29;20051;-72
2022/08/13 02:36:47;;;;;;;3.53;2.25;;;;;;;13.97;64.65;98268.53;4927123;29;20055;-72
2022/08/13 02:39:21;;;;;;;2.60;2.40;;;;;;;13.82;65.16;98264.03;4926124;29;20122;-72
2022/08/13 02:41:50;;;;;;;4.65;2.50;;;;;;;13.73;66.32;98270.41;4921760;29;20048;-72
2022/08/13 02:44:21;;;;;;;3.25;2.78;;;;;;;13.82;66.80;98260.50;4920228;29;20086;-72
2022/08/13 02:46:59;;;;;;;2.65;2.30;;;;;;;13.84;66.24;98269.16;4929564;29;20051;-71
2022/08/13 02:49:25;;;;;;;3.45;1.80;;;;;;;13.77;66.73;98262.88;4926032;29;20422;-72
2022/08/13 02:52:10;;;;;;;2.67;2.47;;;;;;;13.70;66.53;98261.97;4925049;29;20059;-72
2022/08/13 02:54:42;;;;;;;2.10;1.90;;;;;;;13.65;66.87;98270.47;4923066;29;20044;-72
2022/08/13 02:57:22;;;;;;;2.45;2.08;;;;;;;13.63;66.93;98269.00;4923904;29;20055;-72
2022/08/13 02:59:50;;;;;;;2.50;2.10;;;;;;;13.72;66.55;98260.78;4921572;29;20139;-72
2022/08/13 03:02:44;;;;;;;1.95;1.85;;;;;;;13.72;66.90;98265.28;4931960;29;20048;-72
2022/08/13 03:05:16;;;;;;;2.63;2.10;;;;;;;13.72;66.81;98263.44;4922455;29;20464;-72
2022/08/13 03:07:44;;;;;;;4.65;2.15;;;;;;;13.78;67.04;98264.56;4924896;29;20106;-72
2022/08/13 03:10:22;;;;;;;2.53;2.33;;;;;;;13.84;66.59;98271.81;4923033;29;20044;-72
2022/08/13 03:13:11;;;;;;;2.55;1.85;;;;;;;13.85;66.49;98270.81;4926324;29;20051;-72
2022/08/13 03:15:39;;;;;;;2.30;2.10;;;;;;;13.93;66.68;98269.91;4917753;29;20052;-72
2022/08/13 03:18:20;;;;;;;2.13;1.80;;;;;;;13.94;66.02;98276.88;4920243;29;20228;-72
2022/08/13 03:20:51;;;;;;;2.65;2.20;;;;;;;13.89;66.26;98274.75;4936966;29;20047;-72
2022/08/13 03:23:22;;;;;;;1.98;1.85;;;;;;;13.99;66.03;98270.03;4925579;28;20578;-73
2022/08/13 03:25:51;;;;;;;3.10;2.03;;;;;;;14.02;65.71;98267.00;4926913;29;20044;-72
2022/08/13 03:28:18;;;;;;;2.50;2.20;;;;;;;14.04;66.01;98270.31;4924739;29;20044;-72
2022/08/13 03:30:46;;;;;;;4.20;2.17;;;;;;;14.05;65.31;98263.97;4922049;29;20040;-72
2022/08/13 03:33:21;;;;;;;1.73;1.63;;;;;;;14.05;66.13;98258.66;4923751;29;20051;-72
2022/08/13 03:35:48;;;;;;;6.28;2.13;;;;;;;13.99;66.20;98264.69;4922101;28;20062;-72
2022/08/13 03:38:15;;;;;;;2.38;2.17;;;;;;;13.95;65.53;98257.25;4925616;29;20047;-72
2022/08/13 03:43:32;;;;;;;4.28;2.00;;;;;;;13.86;66.36;98259.16;4920993;29;20127;-72
2022/08/13 03:46:20;;;;;;;3.67;1.85;;;;;;;13.93;65.72;98270.75;4922788;29;20102;-72
2022/08/13 03:48:53;;;;;;;2.15;1.95;;;;;;;13.93;66.01;98270.75;4926168;29;20069;-72
2022/08/13 03:51:23;;;;;;;3.35;2.33;;;;;;;13.91;66.36;98270.09;4926166;29;20044;-72
2022/08/13 03:54:01;;;;;;;3.28;2.17;;;;;;;13.91;66.63;98267.44;4925464;29;20180;-72
2022/08/13 03:56:31;;;;;;;2.47;2.20;;;;;;;14.00;65.62;98263.69;4918443;29;20052;-72
2022/08/13 03:59:01;;;;;;;2.70;2.03;;;;;;;14.10;64.82;98267.94;4929946;29;20138;-72
2022/08/13 04:01:28;;;;;;;2.60;2.10;;;;;;;14.16;64.44;98269.88;4915843;29;20078;-72
2022/08/13 04:03:55;;;;;;;3.50;2.10;;;;;;;14.18;64.87;98258.03;4930404;29;20050;-72
2022/08/13 04:06:23;;;;;;;2.22;2.05;;;;;;;14.18;65.05;98265.19;4920387;29;20054;-72
2022/08/13 04:08:53;;;;;;;2.75;1.85;;;;;;;14.12;65.20;98258.78;4918716;29;20040;-72
2022/08/13 04:11:25;;;;;;;2.30;1.85;;;;;;;14.08;65.90;98262.78;4921399;29;20115;-72
2022/08/13 04:13:56;;;;;;;2.75;2.08;;;;;;;14.02;65.43;98264.34;4933774;29;20122;-72
2022/08/13 04:16:32;;;;;;;3.67;2.10;;;;;;;14.01;65.36;98260.03;4925773;29;20056;-72
2022/08/13 04:19:01;;;;;;;2.40;2.20;;;;;;;13.99;65.33;98267.38;4915279;29;20124;-72
2022/08/13 04:21:31;;;;;;;4.25;1.98;;;;;;;14.00;65.96;98260.19;4924384;29;20075;-72
2022/08/13 04:24:02;;;;;;;1.92;1.83;;;;;;;13.99;65.73;98259.38;4919404;29;20115;-72
2022/08/13 04:26:31;;;;;;;3.08;2.60;;;;;;;14.10;65.43;98255.44;4932100;29;20123;-72
2022/08/13 04:29:00;;;;;;;2.78;2.22;;;;;;;14.19;64.69;98258.84;4928958;29;20427;-72
2022/08/13 04:31:27;;;;;;;2.30;2.10;;;;;;;14.22;65.20;98255.84;4927027;29;20522;-72
2022/08/13 04:34:16;;;;;;;3.13;2.10;;;;;;;14.19;64.89;98256.19;4919251;29;20056;-72
2022/08/13 04:37:03;;;;;;;2.25;2.03;;;;;;;14.13;65.17;98259.59;4920428;29;20396;-72
2022/08/13 04:39:30;;;;;;;2.15;2.00;;;;;;;14.17;65.40;98261.72;4921877;29;20052;-72
2022/08/13 04:42:17;;;;;;;2.33;2.13;;;;;;;14.14;65.15;98267.41;4928358;29;20473;-72
2022/08/13 04:44:59;;;;;;;3.65;2.25;;;;;;;14.15;65.47;98269.03;4929026;29;20085;-72
2022/08/13 04:47:30;;;;;;;2.17;1.98;;;;;;;14.14;65.62;98270.06;4919409;29;20054;-73
2022/08/13 04:49:56;;;;;;;2.47;1.88;;;;;;;14.23;65.58;98270.81;4921407;29;20055;-72
2022/08/13 04:52:23;;;;;;;3.15;2.20;;;;;;;14.28;65.42;98263.09;4918567;29;20044;-72
2022/08/13 04:54:56;;;;;;;2.17;1.90;;;;;;;14.33;65.35;98268.72;4919264;29;20067;-72
2022/08/13 04:57:22;;;;;;;2.22;2.13;;;;;;;14.42;65.27;98270.25;4920062;29;20550;-72
2022/08/13 05:00:10;;;;;;;5.30;2.50;;;;;;;14.52;65.33;98277.16;4922728;29;20614;-72
2022/08/13 05:02:40;;;;;;;2.40;2.25;;;;;;;14.60;64.67;98274.44;4920453;29;20040;-71
2022/08/13 05:05:12;;;;;;;2.40;2.20;;;;;;;14.58;64.96;98277.28;4926855;29;20036;-71
2022/08/13 05:07:47;;;;;;;2.80;2.15;;;;;;;14.57;64.55;98275.63;4928800;29;20099;-71
2022/08/13 05:10:20;;;;;;;4.88;2.35;;;;;;;14.70;63.77;98272.31;4920067;29;20050;-71
2022/08/13 05:13:03;;;;;;;4.65;2.55;;;;;;;14.62;65.03;98278.56;4920496;29;20423;-71
2022/08/13 05:15:39;;;;;;;4.70;2.47;;;;;;;14.54;65.27;98277.84;4918698;29;20055;-71
2022/08/13 05:18:15;;;;;;;2.50;2.30;;;;;;;14.60;65.04;98277.09;4923528;29;20703;-71
2022/08/13 05:20:57;;;;;;;2.95;2.65;;;;;;;14.62;64.62;98285.72;4915200;29;20499;-71
2022/08/13 05:23:24;;;;;;;3.17;2.55;;;;;;;14.67;64.87;98294.81;4926994;29;20517;-71
2022/08/13 05:26:11;;;;;;;2.60;2.40;;;;;;;14.71;64.84;98295.25;4922460;29;20052;-71
2022/08/13 05:29:04;;;;;;;2.75;2.42;;;;;;;14.91;64.75;98295.53;4920071;29;20061;-71
2022/08/13 05:31:35;;;;;;;4.15;2.65;;;;;;;14.91;63.57;98283.03;4919990;29;20052;-71
2022/08/13 05:34:24;;;;;;;5.20;3.28;;;;;;;15.10;64.83;98291.47;4928271;29;20047;-71
2022/08/13 05:36:52;;;;;;;2.83;2.63;;;;;;;15.13;64.54;98289.25;4923808;28;20056;-72
2022/08/13 05:39:40;;;;;;;2.83;2.63;;;;;;;15.11;65.01;98291.28;4921716;29;20521;-71
2022/08/13 05:42:18;;;;;;;3.78;2.22;;;;;;;15.20;64.27;98292.00;4914233;29;20522;-71
2022/08/13 05:44:50;;;;;;;3.45;2.53;;;;;;;15.24;64.29;98293.25;4920742;29;20127;-71
2022/08/13 05:47:17;;;;;;;4.43;2.80;;;;;;;15.35;61.68;98298.13;4921921;29;21576;-71
2022/08/13 05:49:50;;;;;;;2.72;2.50;;;;;;;15.50;62.72;98298.06;4921680;29;20052;-71
2022/08/13 05:52:25;;;;;;;2.78;2.58;;;;;;;15.65;62.48;98289.19;4922334;29;20051;-71
2022/08/13 05:55:12;;;;;;;2.20;2.10;;;;;;;15.72;62.47;98296.28;4926659;29;20052;-71
2022/08/13 05:57:58;;;;;;;3.03;2.72;;;;;;;15.86;60.82;98294.56;4920332;29;20048;-71
2022/08/13 06:03:27;;;;;;;2.88;2.58;;;;;;;16.05;60.12;98284.25;4915507;29;20092;-72
2022/08/13 06:06:16;;;;;;;2.90;2.67;;;;;;;16.09;59.57;98288.16;4919805;29;20052;-71
2022/08/13 06:08:56;;;;;;;2.95;2.30;;;;;;;16.26;58.94;98284.22;4932356;29;20051;-72
2022/08/13 06:11:29;;;;;;;3.53;2.28;;;;;;;16.30;59.21;98285.47;4921606;29;20075;-72
2022/08/13 06:14:20;;;;;;;7.45;2.88;;;;;;;16.46;57.99;98290.53;4925361;29;20044;-72
2022/08/13 06:16:51;;;;;;;2.40;2.20;;;;;;;16.50;60.06;98285.59;4928985;28;20482;-72
2022/08/13 06:19:26;;;;;;;3.85;2.58;;;;;;;16.64;58.26;98286.50;4916778;29;20583;-72
2022/08/13 06:22:02;;;;;;;3.83;2.80;;;;;;;16.74;57.62;98291.50;4918425;29;20087;-72
2022/08/13 06:24:35;;;;;;;2.75;2.50;;;;;;;16.70;58.10;98288.41;4921134;29;20612;-72
2022/08/13 06:27:19;;;;;;;2.35;2.15;;;;;;;16.84;58.29;98292.00;4927235;29;20066;-72
2022/08/13 06:29:45;;;;;;;3.28;2.95;;;;;;;16.85;57.85;98288.28;4917585;29;20043;-72
2022/08/13 06:32:20;;;;;;;2.50;2.30;;;;;;;16.99;57.68;98290.03;4917715;29;20058;-72
2022/08/13 06:35:08;;;;;;;2.65;2.45;;;;;;;17.08;56.67;98294.16;4913903;29;20047;-72
2022/08/13 06:37:41;;;;;;;2.65;2.45;;;;;;;17.16;57.05;98295.00;4915476;29;20071;-72
2022/08/13 06:40:22;;;;;;;2.20;2.00;;;;;;;17.25;57.04;98291.16;4918685;29;20048;-72
2022/08/13 06:43:01;;;;;;;2.35;2.10;;;;;;;17.45;56.17;98293.88;4921809;29;20104;-72
2022/08/13 06:45:32;;;;;;;3.60;2.38;;;;;;;17.58;55.97;98290.41;4921163;29;20504;-72
2022/08/13 06:48:01;;;;;;;2.50;2.30;;;;;;;17.81;56.08;98303.47;4920966;29;20514;-72
2022/08/13 06:50:34;;;;;;;3.00;2.30;;;;;;;17.96;55.86;98302.25;4919656;29;20123;-72
2022/08/13 06:53:05;;;;;;;2.15;1.95;;;;;;;18.02;55.26;98305.13;4917308;29;20071;-72
2022/08/13 06:55:52;;;;;;;4.43;2.15;;;;;;;18.13;54.98;98301.81;4916085;29;20048;-72
2022/08/13 06:58:41;;;;;;;1.85;1.75;;;;;;;18.27;54.39;98294.59;4921685;29;20044;-72
2022/08/13 07:01:08;;;;;;;3.70;2.13;;;;;;;18.30;54.52;98297.72;4924674;29;20043;-72
2022/08/13 07:03:40;;;;;;;3.25;2.08;;;;;;;18.35;54.82;98300.59;4927620;29;20074;-72
2022/08/13 07:06:22;;;;;;;2.45;2.10;;;;;;;18.61;53.93;98297.03;4912753;29;20629;-72
2022/08/13 07:08:57;;;;;;;2.08;1.80;;;;;;;18.90;52.76;98299.47;4918446;29;20066;-72
2022/08/13 07:11:26;;;;;;;3.03;2.08;;;;;;;19.04;52.13;98298.41;4913868;29;20107;-72
2022/08/13 07:14:06;;;;;;;5.80;2.55;;;;;;;19.20;51.80;98300.59;4924103;29;20088;-72
2022/08/13 07:16:40;;;;;;;3.33;2.03;;;;;;;19.40;51.26;98307.72;4924782;29;20502;-72
2022/08/13 07:19:10;;;;;;;3.15;2.00;;;;;;;19.51;50.98;98302.53;4919840;29;20079;-72
2022/08/13 07:21:37;;;;;;;3.88;2.50;;;;;;;19.59;50.59;98303.28;4920297;29;20099;-72
2022/08/13 07:24:09;;;;;;;2.22;2.03;;;;;;;19.73;50.23;98313.78;4926313;29;20047;-72
2022/08/13 07:26:59;;;;;;;2.47;2.28;;;;;;;19.81;49.86;98304.63;4918037;29;20070;-72
2022/08/13 07:29:27;;;;;;;4.65;3.45;;;;;;;19.91;50.51;98306.84;4924327;29;20099;-72
2022/08/13 07:31:55;;;;;;;2.35;2.15;;;;;;;19.77;50.52;98310.66;4927345;29;20064;-72
2022/08/13 07:34:32;;;;;;;1.80;1.70;;;;;;;19.83;50.23;98304.44;4926907;29;20054;-72
2022/08/13 07:37:03;;;;;;;2.03;1.92;;;;;;;20.06;49.76;98307.34;4924414;29;20090;-72
2022/08/13 07:39:30;;;;;;;2.65;2.10;;;;;;;20.03;50.43;98301.59;4919679;29;20058;-72
2022/08/13 07:42:16;;;;;;;1.88;1.77;;;;;;;20.06;49.11;98306.53;4917125;29;20040;-73
2022/08/13 07:44:55;;;;;;;2.22;2.00;;;;;;;20.26;48.91;98306.38;4921165;29;20107;-72
2022/08/13 07:47:43;;;;;;;2.58;1.90;;;;;;;20.43;48.44;98301.25;4925786;29;20066;-72
2022/08/13 07:50:30;;;;;;;2.97;1.98;;;;;;;20.54;50.00;98298.69;4936424;28;20052;-72
2022/08/13 07:52:58;;;;;;;2.00;1.90;;;;;;;20.54;50.09;98292.50;4931569;29;20062;-72
2022/08/13 07:55:26;;;;;;;2.55;2.05;;;;;;;20.74;49.33;98300.34;4936795;28;20422;-72
2022/08/13 07:58:13;;;;;;;2.10;1.95;;;;;;;21.00;46.82;98296.56;4924771;29;20048;-73
2022/08/13 08:00:46;;;;;;;2.50;1.80;;;;;;;20.88;48.85;98290.28;4916504;29;20048;-72
2022/08/13 08:03:13;;;;;;;2.10;1.95;;;;;;;21.05;47.01;98288.63;4927521;29;20035;-72
2022/08/13 08:05:41;;;;;;;1.90;1.70;;;;;;;21.35;47.88;98290.53;4930314;29;20081;-72
2022/08/13 08:08:10;;;;;;;4.47;1.83;;;;;;;21.47;47.41;98294.94;4918077;29;20055;-72
2022/08/13 08:10:46;;;;;;;3.33;2.00;;;;;;;21.32;47.80;98289.13;4918783;29;20048;-72
2022/08/13 08:13:13;;;;;;;5.95;1.88;;;;;;;21.52;46.35;98288.88;4917759;29;20143;-72
2022/08/13 08:15:43;;;;;;;2.10;1.95;;;;;;;21.52;47.02;98283.50;4915295;29;20052;-72
2022/08/13 08:18:28;;;;;;;2.20;2.00;;;;;;;21.56;47.03;98284.69;4921365;29;20128;-72
2022/08/13 08:21:15;;;;;;;2.55;1.65;;;;;;;21.63;46.11;98281.91;4921259;29;20051;-72
2022/08/13 08:24:04;;;;;;;2.42;2.03;;;;;;;21.61;47.99;98284.00;4922075;29;20051;-72
2022/08/13 08:26:49;;;;;;;1.85;1.75;;;;;;;22.01;46.07;98283.41;4924573;29;20066;-73
2022/08/13 08:29:16;;;;;;;4.05;2.25;;;;;;;22.40;44.06;98283.81;4919883;29;20056;-73
2022/08/13 08:31:47;;;;;;;2.50;1.90;;;;;;;22.76;43.12;98286.25;4917809;29;20047;-72
2022/08/13 08:34:28;;;;;;;2.40;1.92;;;;;;;22.97;42.69;98289.44;4917419;29;20648;-72
2022/08/13 08:36:55;;;;;;;2.35;1.83;;;;;;;22.99;42.33;98285.44;4922394;29;20083;-72
2022/08/13 08:45:00;;;;;;;3.00;2.28;;;;;;;22.75;43.44;98287.31;4922585;29;20480;-72
2022/08/13 08:47:37;;;;;;;2.75;1.88;;;;;;;22.76;44.33;98288.13;4917488;29;20385;-72
2022/08/13 08:50:22;;;;;;;1.90;1.80;;;;;;;22.60;45.70;98280.78;4918013;29;20525;-72
2022/08/13 08:56:05;;;;;;;2.55;1.63;;;;;;;22.64;45.90;98282.75;4922825;29;20051;-72
2022/08/13 08:58:34;;;;;;;2.00;1.75;;;;;;;22.73;46.10;98286.75;4928091;29;20540;-73
2022/08/13 09:01:05;;;;;;;2.50;2.15;;;;;;;22.85;44.09;98285.88;4918093;29;20079;-73
2022/08/13 09:03:39;;;;;;;2.65;2.42;;;;;;;23.31;43.36;98286.88;4915119;29;20054;-72
2022/08/13 09:06:25;;;;;;;4.20;1.77;;;;;;;23.38;44.55;98282.97;4915254;29;20054;-72
2022/08/13 09:09:13;;;;;;;2.85;2.25;;;;;;;23.38;43.53;98276.72;4917811;29;20048;-72
2022/08/13 09:11:45;;;;;;;3.30;1.60;;;;;;;23.51;43.39;98281.03;4927697;29;20530;-72
2022/08/13 09:14:20;;;;;;;3.53;1.77;;;;;;;23.65;42.58;98288.59;4920908;29;20051;-72
2022/08/13 09:16:49;;;;;;;1.98;1.77;;;;;;;23.76;40.74;98275.31;4920319;29;20048;-72
2022/08/13 09:19:19;;;;;;;6.72;1.95;;;;;;;23.65;40.69;98269.69;4914044;29;20132;-72
2022/08/13 09:21:59;;;;;;;3.10;1.75;;;;;;;23.76;40.31;98276.13;4917444;29;20431;-73
2022/08/13 09:24:26;;;;;;;1.77;1.67;;;;;;;23.92;39.07;98274.50;4917129;29;20049;-72
2022/08/13 09:26:52;;;;;;;4.00;1.52;;;;;;;23.89;40.16;98269.59;4926155;29;20043;-73
2022/08/13 09:29:25;;;;;;;2.90;1.98;;;;;;;24.12;40.48;98267.78;4919318;29;20076;-72
2022/08/13 09:31:55;;;;;;;2.60;1.73;;;;;;;24.13;40.93;98272.97;4926033;29;20063;-72
2022/08/13 09:34:21;;;;;;;1.92;1.73;;;;;;;24.35;40.48;98272.22;4923676;29;20071;-72
2022/08/13 09:36:50;;;;;;;1.83;1.50;;;;;;;24.47;39.86;98262.16;4919720;29;20491;-73
2022/08/13 09:39:36;;;;;;;3.10;1.60;;;;;;;24.97;37.07;98258.50;4911104;29;20051;-72
2022/08/13 09:42:15;;;;;;;2.03;1.60;;;;;;;25.38;36.94;98249.00;4921943;29;20052;-72
2022/08/13 09:44:56;;;;;;;1.95;1.52;;;;;;;25.68;35.99;98247.66;4926017;29;20395;-73
2022/08/13 09:47:23;;;;;;;1.38;1.27;;;;;;;25.89;35.64;98245.16;4925106;29;20055;-72
2022/08/13 09:50:10;;;;;;;2.45;1.40;;;;;;;25.86;35.60;98240.22;4918809;29;20055;-72
2022/08/13 09:52:37;;;;;;;3.38;1.83;;;;;;;25.81;34.95;98246.41;4919291;29;20095;-72
2022/08/13 09:55:05;;;;;;;3.30;1.50;;;;;;;25.62;34.32;98238.66;4913671;29;20404;-72
2022/08/13 09:57:53;;;;;;;3.70;2.05;;;;;;;24.98;36.21;98239.28;4911965;29;20058;-72
2022/08/13 10:00:22;;;;;;;2.60;1.52;;;;;;;25.28;35.41;98237.22;4927012;29;20098;-72
2022/08/13 10:02:57;;;;;;;2.42;1.77;;;;;;;25.30;37.21;98235.06;4925751;29;20047;-71
2022/08/13 10:05:26;;;;;;;2.45;1.50;;;;;;;25.41;35.48;98231.41;4919808;29;20473;-72
2022/08/13 10:08:05;;;;;;;3.25;1.95;;;;;;;24.87;36.62;98234.81;4915555;29;20432;-72
2022/08/13 10:10:33;;;;;;;2.03;1.77;;;;;;;24.96;36.40;98240.59;4913985;29;20056;-71
2022/08/13 10:13:02;;;;;;;3.15;1.48;;;;;;;24.83;35.84;98239.13;4912093;29;20130;-71
2022/08/13 10:15:29;;;;;;;2.67;1.70;;;;;;;25.04;36.11;98237.47;4925255;29;20095;-72
2022/08/13 10:18:04;;;;;;;1.95;1.73;;;;;;;25.23;36.23;98237.19;4915734;29;20075;-72
2022/08/13 10:20:43;;;;;;;2.10;1.30;;;;;;;25.62;33.00;98243.25;4915137;29;20103;-71
2022/08/13 10:23:12;;;;;;;3.80;1.38;;;;;;;25.55;34.56;98245.34;4925080;29;20047;-72
2022/08/13 10:25:42;;;;;;;1.37;1.27;;;;;;;25.30;34.51;98238.59;4919801;29;20507;-72
2022/08/13 10:28:26;;;;;;;1.45;1.20;;;;;;;24.69;35.09;98243.25;4917392;29;20142;-72
2022/08/13 10:31:03;;;;;;;1.70;1.58;;;;;;;24.37;34.68;98235.75;4918862;29;20067;-72
2022/08/13 10:33:54;;;;;;;1.58;1.48;;;;;;;24.16;36.28;98236.50;4923455;29;20452;-71
2022/08/13 10:36:25;;;;;;;4.35;1.52;;;;;;;24.03;36.23;98232.25;4924168;29;20063;-72
2022/08/13 10:39:01;;;;;;;2.05;1.48;;;;;;;24.06;35.97;98234.47;4920492;29;20110;-72
2022/08/13 10:41:31;;;;;;;1.40;1.27;;;;;;;24.22;35.73;98225.50;4916646;29;20076;-71
2022/08/13 10:44:00;;;;;;;2.08;1.50;;;;;;;24.73;34.07;98220.03;4916322;29;20470;-71
2022/08/13 10:46:31;;;;;;;2.53;1.48;;;;;;;24.92;33.79;98221.34;4917001;29;20075;-71
2022/08/13 10:49:00;;;;;;;1.58;1.48;;;;;;;25.26;33.52;98210.41;4916992;29;20052;-71
2022/08/13 10:51:29;;;;;;;4.88;1.45;;;;;;;25.48;32.88;98212.22;4923317;29;20058;-72
2022/08/13 10:54:10;;;;;;;2.47;1.48;;;;;;;25.61;32.70;98204.50;4923997;29;22328;-71
2022/08/13 10:56:56;;;;;;;2.33;1.50;;;;;;;25.49;34.02;98198.44;4918885;29;20519;-72
2022/08/13 10:59:25;;;;;;;2.38;1.25;;;;;;;25.69;33.67;98199.69;4924111;29;20051;-71
2022/08/13 11:01:51;;;;;;;1.92;1.73;;;;;;;25.21;32.54;98190.56;4921063;29;20056;-72
2022/08/13 11:04:18;;;;;;;1.60;1.40;;;;;;;25.30;33.31;98195.25;4922546;29;20036;-71
2022/08/13 11:06:45;;;;;;;1.50;1.40;;;;;;;25.51;32.17;98200.88;4932264;29;20043;-72
2022/08/13 11:09:19;;;;;;;4.30;1.77;;;;;;;25.90;31.80;98195.28;4925233;29;20098;-72
2022/08/13 11:11:57;;;;;;;1.50;1.40;;;;;;;25.86;31.64;98188.72;4926682;29;20059;-71
2022/08/13 11:14:29;;;;;;;2.65;1.27;;;;;;;26.00;31.76;98193.47;4925836;29;20128;-71
2022/08/13 11:17:08;;;;;;;2.47;1.80;;;;;;;26.03;31.09;98192.13;4919776;29;20048;-72
2022/08/13 11:19:45;;;;;;;2.40;1.70;;;;;;;26.03;29.89;98192.94;4918470;29;20161;-72
2022/08/13 11:22:21;;;;;;;1.90;1.67;;;;;;;26.14;29.89;98191.09;4919884;29;20419;-72
2022/08/13 11:24:57;;;;;;;2.92;1.40;;;;;;;25.86;32.01;98186.03;4917382;29;20047;-72
2022/08/13 11:27:25;;;;;;;1.65;1.13;;;;;;;26.21;29.23;98183.56;4932085;29;20052;-72
2022/08/13 11:30:13;;;;;;;3.22;1.65;;;;;;;26.13;29.31;98175.13;4918316;29;20067;-71
2022/08/13 11:32:56;;;;;;;3.85;1.58;;;;;;;26.11;30.32;98185.41;4918925;29;20519;-71
2022/08/13 11:35:23;;;;;;;1.27;1.17;;;;;;;26.17;31.02;98173.50;4921422;29;20434;-71
2022/08/13 11:37:49;;;;;;;2.20;1.20;;;;;;;26.31;30.88;98171.97;4917181;29;20511;-71
2022/08/13 11:40:23;;;;;;;3.38;1.60;;;;;;;26.41;30.87;98174.75;4925848;29;20730;-70
2022/08/13 11:42:59;;;;;;;2.30;1.52;;;;;;;26.26;32.38;98166.53;4928634;29;20427;-71
2022/08/13 11:45:43;;;;;;;1.55;1.30;;;;;;;26.69;31.47;98165.38;4925319;29;20059;-70
2022/08/13 11:48:14;;;;;;;1.57;1.47;;;;;;;26.92;30.97;98179.59;4923873;29;20570;-71
2022/08/13 11:50:55;;;;;;;1.80;1.02;;;;;;;26.98;29.61;98167.66;4917358;29;20058;-71
2022/08/13 11:53:22;;;;;;;3.40;1.50;;;;;;;26.79;29.40;98163.81;4925182;29;20044;-72
2022/08/13 11:55:51;;;;;;;2.45;1.40;;;;;;;26.52;29.42;98156.66;4923146;29;20430;-71
2022/08/13 11:58:27;;;;;;;1.67;1.58;;;;;;;26.42;29.85;98164.72;4926329;29;20048;-71
2022/08/13 12:01:18;;;;;;;1.45;1.35;;;;;;;26.73;30.79;98159.44;4924188;29;20054;-71
2022/08/13 12:03:54;;;;;;;2.95;2.00;;;;;;;26.75;31.45;98157.25;4930022;29;20079;-72
2022/08/13 12:06:41;;;;;;;2.15;1.40;;;;;;;27.08;30.03;98162.25;4919111;29;20059;-71
2022/08/13 12:09:14;;;;;;;2.10;1.80;;;;;;;27.11;30.88;98156.28;4925088;29;20079;-71
2022/08/13 12:12:01;;;;;;;2.63;1.50;;;;;;;27.09;28.42;98144.91;4920268;29;20044;-71
2022/08/13 12:14:36;;;;;;;1.60;1.10;;;;;;;27.13;29.31;98148.69;4928488;29;20048;-71
2022/08/13 12:17:03;;;;;;;1.15;1.13;;;;;;;27.04;29.33;98147.59;4922531;29;20082;-71
2022/08/13 12:19:30;;;;;;;3.72;1.50;;;;;;;26.86;29.28;98148.09;4926090;29;20123;-71
2022/08/13 12:21:59;;;;;;;2.00;1.40;;;;;;;26.96;27.62;98158.16;4925788;29;20503;-71
2022/08/13 12:24:26;;;;;;;1.42;1.33;;;;;;;26.91;26.98;98148.13;4923720;29;20798;-70
2022/08/13 12:26:59;;;;;;;3.13;1.60;;;;;;;27.00;29.17;98145.69;4916064;29;20400;-72
2022/08/13 12:29:29;;;;;;;4.20;1.33;;;;;;;26.96;30.13;98145.38;4922092;29;20511;-71
2022/08/13 12:32:11;;;;;;;3.40;1.30;;;;;;;27.24;29.20;98140.59;4931351;29;20048;-71
2022/08/13 12:34:40;;;;;;;1.52;1.23;;;;;;;27.45;29.78;98138.72;4921627;29;20072;-71
2022/08/13 12:37:08;;;;;;;2.47;1.40;;;;;;;27.48;28.83;98143.59;4917238;28;20048;-71